Warren, OH (44488)

6:32 PM EDT on September 30, 2014 (GMT -0400)
Howland | Change Station
CLOSE
Current Station
Personal Weather Station
Location: Warren, OH
Elevation: 988 ft
Nearby Weather Stations

Elev 988 ft 41.25 °N, 80.74 °W | Updated 1 minute ago

Overcast
Overcast
60.5 °F
Feels Like 60.5 °F
N
0.0
Wind Variable Wind from NE
Gusts 0.0 mph

Today
High -- | Low -- °F
--% Chance of Precip.
Yesterday
High -- | Low -- °F
Precip. -- in
7:18 AM 7:06 PM
Waxing Crescent, 40% visible
Pressure 29.93 in
Visibility 10.0 miles
Clouds Mostly Cloudy 1100 ft
Mostly Cloudy 2100 ft
Dew Point 57 °F
Humidity 87%
Rainfall 0.34 in
Snow Depth Not available.
UV 0 out of 12
Pollen 1.90 out of 12
Ozone Good
PM2.5 Good
Flu Activity Not available.
SPECI KYNG 302213Z 33011KT 10SM BKN011 BKN021 16/13 A2993 RMK AO2 T01610133 $

More Conditions Fewer Conditions

Pressure 29.93 in
Visibility 10.0 miles
Clouds Mostly Cloudy 1100 ft
Mostly Cloudy 2100 ft
Dew Point 57 °F
Humidity 87%
Rainfall 0.34 in
Snow Depth Not available.
UV 0 out of 12
Pollen 1.90 out of 12
Ozone Good
PM2.5 Good
Flu Activity Not available.
SPECI KYNG 302213Z 33011KT 10SM BKN011 BKN021 16/13 A2993 RMK AO2 T01610133 $

More Conditions Fewer Conditions

10-Day Weather Forecast

Almanac

Astronomy

Sep. 30, 2014 Rise Set
Actual Time 7:18 AM EDT 7:06 PM EDT
Civil Twilight 6:51 AM EDT 7:34 PM EDT
Nautical Twilight 6:19 AM EDT 8:06 PM EDT
Astronomical Twilight 5:46 AM EDT 8:38 PM EDT
Moon 1:28 PM EDT 11:32 PM EDT
Length of Visible Light 12h 42m
Length of Day
11h 47m
Tomorrow will be 2m 43s shorter.
Waxing Crescent, 40% of the Moon is Illuminated
Today
Waxing Crescent
Oct 1
First Quarter
Oct 8
Full
Oct 15
Last Quarter
Oct 23
New

Today's Extremes

State Highs State Lows

Community

WunderPhotos

Upload Photos

1,757,767 photos uploaded!

Nearby

Air Quality

  Air Quality AQ Index Pollutant
Yesterday Moderate
PM2.5
Yesterday Good
OZONE
Current Good
PM2.5
Current Good
OZONE
Tuesday Moderate
PM2.5
Tuesday Good
OZONE
Wednesday Moderate
PM2.5
Wednesday Good
OZONE
Thursday Moderate
PM2.5
Thursday Moderate
OZONE
Friday Good
PM2.5
Friday Good
OZONE
Saturday Good
OZONE
Saturday Good
PM2.5
Sunday Good
OZONE
Sunday Good
PM2.5

Snow Depth

Station Depth Elevation
No new snow has been reported.

Earthquake Activity

City Distance Mag. Time & Date
No recent earthquake activity has been reported nearby.
Minimum magnitude displayed is 2.5.

Coastal Water Temperatures

Place Temperature
No Stations Reporting

Nearby Weather Stations